Time;durP1;ratioP1;P1;durP2;ratioP2;P2;SDS_P1;SDS_P2;PMS_P1;PMS_P2;Temp;Humidity;BMP_temperature;BMP_pressure;BME280_temperature;BME280_humidity;BME280_pressure;Samples;Min_cycle;Max_cycle;Signal;HPM_P1;HPM_P2
2022/02/01 00:02:10;;;;;;;12.90;7.00;;;3.00;1.00;;;;;;4925292;28;20330;-86
2022/02/01 00:04:45;;;;;;;14.52;6.68;;;3.00;1.00;;;;;;4920748;28;20337;-85
2022/02/01 00:07:19;;;;;;;17.25;7.60;;;3.00;1.00;;;;;;4908265;29;20254;-86
2022/02/01 00:09:55;;;;;;;13.80;6.25;;;3.00;1.00;;;;;;4909259;29;20232;-86
2022/02/01 00:12:36;;;;;;;13.98;6.95;;;3.00;1.00;;;;;;4908972;29;20223;-86
2022/02/01 00:18:03;;;;;;;12.85;6.63;;;3.00;1.00;;;;;;4910711;29;20249;-85
2022/02/01 00:33:07;;;;;;;19.60;8.05;;;3.00;1.00;;;;;;4928239;28;20297;-85
2022/02/01 00:37:25;;;;;;;24.83;9.63;;;2.70;1.00;;;;;;4902695;29;20321;-86
2022/02/01 00:39:56;;;;;;;16.77;7.57;;;2.80;1.00;;;;;;4920599;28;20271;-86
2022/02/01 00:42:24;;;;;;;24.42;8.52;;;2.80;1.00;;;;;;4918661;28;20239;-85
2022/02/01 00:44:52;;;;;;;17.10;7.15;;;2.80;1.00;;;;;;4907095;29;20244;-85
2022/02/01 00:47:19;;;;;;;21.92;8.82;;;2.80;1.00;;;;;;4922460;28;20230;-85
2022/02/01 00:49:46;;;;;;;18.55;7.45;;;2.80;1.00;;;;;;4908131;29;20308;-85
2022/02/01 00:52:13;;;;;;;15.95;7.65;;;2.80;1.00;;;;;;4900424;29;20270;-86
2022/02/01 00:54:41;;;;;;;20.70;8.30;;;2.80;1.00;;;;;;4904811;29;20249;-84
2022/02/01 00:57:11;;;;;;;21.27;8.07;;;2.80;1.00;;;;;;4904343;29;20237;-85
2022/02/01 00:59:38;;;;;;;21.35;7.60;;;2.90;1.00;;;;;;4912553;29;20258;-85
2022/02/01 01:02:07;;;;;;;18.73;9.75;;;2.80;1.00;;;;;;4915226;29;20451;-86
2022/02/01 01:04:33;;;;;;;14.68;8.35;;;2.80;1.00;;;;;;4924075;28;20233;-86
2022/02/01 01:07:00;;;;;;;20.17;8.75;;;2.90;1.00;;;;;;4911085;29;20238;-86
2022/02/01 01:09:28;;;;;;;20.00;8.20;;;2.90;1.00;;;;;;4914761;29;20223;-85
2022/02/01 01:11:57;;;;;;;27.17;9.20;;;2.90;1.00;;;;;;4921268;29;20263;-86
2022/02/01 01:44:38;;;;;;;17.90;8.75;;;3.10;1.00;;;;;;4887977;29;20310;-85
2022/02/01 01:53:10;;;;;;;22.23;10.98;;;2.90;1.00;;;;;;4912561;29;20224;-85
2022/02/01 01:55:38;;;;;;;18.10;8.55;;;2.90;1.00;;;;;;4905064;29;20303;-85
2022/02/01 01:58:06;;;;;;;14.95;8.63;;;2.90;1.00;;;;;;4912332;29;20305;-86
2022/02/01 02:00:48;;;;;;;18.80;9.18;;;2.90;1.00;;;;;;4922519;29;20222;-86
2022/02/01 02:03:15;;;;;;;21.58;9.73;;;2.90;1.00;;;;;;4933833;28;20236;-86
2022/02/01 02:05:44;;;;;;;16.05;8.60;;;2.90;1.00;;;;;;4934588;28;20242;-86
2022/02/01 02:08:13;;;;;;;17.30;10.30;;;2.90;1.00;;;;;;4913613;29;20231;-86
2022/02/01 02:10:50;;;;;;;16.52;9.55;;;2.90;1.00;;;;;;4919587;29;20221;-85
2022/02/01 02:16:02;;;;;;;18.77;10.05;;;2.80;1.00;;;;;;4931159;28;20218;-85
2022/02/01 02:18:30;;;;;;;17.17;9.90;;;2.80;1.00;;;;;;4914248;29;20234;-86
2022/02/01 02:21:00;;;;;;;21.55;10.38;;;2.80;1.00;;;;;;4908461;29;20234;-86
2022/02/01 02:23:27;;;;;;;19.23;10.45;;;2.80;1.00;;;;;;4897210;29;20310;-87
2022/02/01 02:25:55;;;;;;;22.15;10.30;;;2.90;1.00;;;;;;4899147;29;20238;-86
2022/02/01 02:28:22;;;;;;;20.92;11.10;;;2.90;1.00;;;;;;4908610;28;20230;-86
2022/02/01 02:30:52;;;;;;;17.20;10.23;;;2.90;1.00;;;;;;4906620;29;20233;-86
2022/02/01 02:33:19;;;;;;;19.75;9.55;;;3.00;1.00;;;;;;4901072;29;20234;-86
2022/02/01 02:35:55;;;;;;;19.50;10.07;;;2.90;1.00;;;;;;4905776;29;20334;-85
2022/02/01 02:38:32;;;;;;;14.82;10.80;;;3.00;1.00;;;;;;4910584;28;20235;-85
2022/02/01 02:41:21;;;;;;;23.13;10.80;;;3.00;1.00;;;;;;4919592;28;20270;-85
2022/02/01 02:46:34;;;;;;;19.45;9.38;;;2.90;1.00;;;;;;4908878;29;20234;-86
2022/02/01 02:49:01;;;;;;;16.77;10.48;;;3.00;1.00;;;;;;4921186;28;20230;-85
2022/02/01 02:51:29;;;;;;;15.93;10.05;;;3.00;1.00;;;;;;4912042;29;21013;-86
2022/02/01 02:53:57;;;;;;;15.23;10.00;;;3.00;1.00;;;;;;4914293;29;20226;-85
2022/02/01 02:56:24;;;;;;;17.15;10.38;;;3.00;1.00;;;;;;4912227;29;20331;-86
2022/02/01 02:58:52;;;;;;;20.23;10.68;;;3.10;1.00;;;;;;4907417;29;20234;-86
2022/02/01 03:01:19;;;;;;;22.42;11.35;;;3.00;1.00;;;;;;4907561;29;20226;-86
2022/02/01 03:03:46;;;;;;;19.27;10.90;;;3.00;1.00;;;;;;4908515;29;20330;-86
2022/02/01 03:06:13;;;;;;;23.10;11.52;;;3.10;1.00;;;;;;4908766;29;20242;-86
2022/02/01 03:08:40;;;;;;;20.38;11.30;;;3.10;1.00;;;;;;4906003;29;20277;-87
2022/02/01 03:11:12;;;;;;;20.13;10.70;;;3.20;1.00;;;;;;4907265;29;20227;-86
2022/02/01 03:13:44;;;;;;;22.02;10.35;;;3.10;1.00;;;;;;4906680;29;20348;-85
2022/02/01 03:16:25;;;;;;;24.40;12.20;;;3.20;1.00;;;;;;4926631;28;20229;-86
2022/02/01 03:21:37;;;;;;;22.42;11.20;;;3.20;1.00;;;;;;4901917;29;20230;-86
2022/02/01 03:24:05;;;;;;;20.50;13.23;;;3.20;1.00;;;;;;4918476;28;20234;-86
2022/02/01 03:26:35;;;;;;;19.30;11.63;;;3.20;1.00;;;;;;4909567;29;20242;-86
2022/02/01 03:29:03;;;;;;;29.40;13.27;;;3.20;1.00;;;;;;4906139;29;20310;-84
2022/02/01 03:31:30;;;;;;;21.80;11.55;;;3.20;1.00;;;;;;4910108;29;20321;-86
2022/02/01 03:33:57;;;;;;;19.15;11.40;;;3.20;1.00;;;;;;4912671;29;20250;-86
2022/02/01 03:36:24;;;;;;;17.50;11.50;;;3.20;1.00;;;;;;4931496;28;20221;-87
2022/02/01 03:38:51;;;;;;;23.90;11.88;;;3.30;1.00;;;;;;4928075;28;20365;-85
2022/02/01 03:41:19;;;;;;;24.90;11.75;;;3.40;1.00;;;;;;4946261;28;20233;-87
2022/02/01 03:43:50;;;;;;;18.90;12.13;;;3.40;1.00;;;;;;4943270;28;20295;-86
2022/02/01 03:46:16;;;;;;;24.77;13.35;;;3.40;1.00;;;;;;4912567;29;20230;-86
2022/02/01 03:48:44;;;;;;;21.48;12.23;;;3.30;1.00;;;;;;4930759;28;20237;-86
2022/02/01 03:51:13;;;;;;;20.55;11.73;;;3.30;1.00;;;;;;4908179;29;20682;-86
2022/02/01 03:53:40;;;;;;;17.38;11.85;;;3.30;1.00;;;;;;4911190;29;20226;-86
2022/02/01 03:56:07;;;;;;;23.70;11.35;;;3.30;1.00;;;;;;4926928;28;20935;-86
2022/02/01 03:58:34;;;;;;;21.00;12.85;;;3.20;1.00;;;;;;4910417;29;20234;-87
2022/02/01 04:01:03;;;;;;;22.10;12.80;;;3.20;1.00;;;;;;4909927;29;20395;-87
2022/02/01 04:03:30;;;;;;;24.25;10.40;;;3.30;1.00;;;;;;4911357;29;20237;-87
2022/02/01 04:05:57;;;;;;;24.17;12.25;;;3.30;1.00;;;;;;4905574;29;20226;-86
2022/02/01 04:08:24;;;;;;;17.85;12.00;;;3.30;1.00;;;;;;4910282;29;20274;-86
2022/02/01 04:10:51;;;;;;;20.63;11.90;;;3.30;1.00;;;;;;4907909;29;20252;-87
2022/02/01 04:13:19;;;;;;;20.98;12.80;;;3.30;1.00;;;;;;4913624;29;20218;-87
2022/02/01 04:15:46;;;;;;;22.48;12.25;;;3.40;1.00;;;;;;4908313;28;20273;-86
2022/02/01 04:18:14;;;;;;;22.45;14.15;;;3.40;1.00;;;;;;4923031;28;20305;-87
2022/02/01 04:20:42;;;;;;;26.52;13.25;;;3.30;1.00;;;;;;4909812;29;20319;-86
2022/02/01 04:23:09;;;;;;;19.48;12.60;;;3.30;1.00;;;;;;4920234;28;20227;-85
2022/02/01 04:25:35;;;;;;;22.20;12.55;;;3.30;1.00;;;;;;4912744;29;20245;-86
2022/02/01 04:28:02;;;;;;;23.45;12.88;;;3.20;1.00;;;;;;4906561;29;20248;-85
2022/02/01 04:30:29;;;;;;;27.95;13.77;;;3.30;1.00;;;;;;4909005;29;21439;-86
2022/02/01 04:32:57;;;;;;;22.45;14.07;;;3.20;1.00;;;;;;4912147;29;20230;-87
2022/02/01 04:35:27;;;;;;;22.77;13.48;;;3.20;1.00;;;;;;4911916;29;20240;-85
2022/02/01 04:37:57;;;;;;;21.73;14.00;;;3.20;1.00;;;;;;4925715;28;20231;-85
2022/02/01 04:40:26;;;;;;;23.05;13.57;;;3.20;1.00;;;;;;4929970;29;20231;-86
2022/02/01 04:42:54;;;;;;;21.98;14.43;;;3.10;1.00;;;;;;4915461;29;20257;-87
2022/02/01 04:45:24;;;;;;;23.88;13.55;;;3.10;1.00;;;;;;4925839;28;20226;-85
2022/02/01 04:47:52;;;;;;;23.65;13.50;;;3.10;1.00;;;;;;4922324;28;20242;-85
2022/02/01 04:50:23;;;;;;;25.85;13.57;;;3.20;1.00;;;;;;4921027;28;20227;-87
2022/02/01 04:52:53;;;;;;;19.58;12.98;;;3.20;1.00;;;;;;4921450;29;20232;-87
2022/02/01 04:55:24;;;;;;;22.70;13.85;;;3.20;1.00;;;;;;4923202;29;20739;-86
2022/02/01 04:57:57;;;;;;;20.50;12.65;;;3.20;1.00;;;;;;4942592;28;20222;-88
2022/02/01 05:03:04;;;;;;;19.00;12.57;;;3.20;1.00;;;;;;5387514;23;20244;-87
2022/02/01 05:05:37;;;;;;;20.48;12.25;;;3.20;1.00;;;;;;5017241;23;20215;-88
2022/02/01 05:08:10;;;;;;;21.50;13.32;;;3.20;1.00;;;;;;5173808;22;20237;-89
2022/02/01 05:14:10;;;;;;;18.48;13.40;;;3.30;1.00;;;;;;5025235;23;20242;-86
2022/02/01 05:17:02;;;;;;;22.92;12.98;;;3.30;1.00;;;;;;4978046;28;20220;-83
2022/02/01 05:19:46;;;;;;;21.85;12.60;;;3.30;1.00;;;;;;4948273;28;20233;-87
2022/02/01 05:22:16;;;;;;;18.13;11.60;;;3.30;1.00;;;;;;4964829;28;20229;-86
2022/02/01 05:24:46;;;;;;;23.45;12.90;;;3.30;1.00;;;;;;4947456;28;20256;-86
2022/02/01 05:27:14;;;;;;;22.50;12.65;;;3.30;1.00;;;;;;4947730;28;20295;-86
2022/02/01 05:29:42;;;;;;;15.45;10.63;;;3.30;1.00;;;;;;4947723;28;20227;-86
2022/02/01 05:32:24;;;;;;;16.55;11.43;;;3.30;1.00;;;;;;4955830;28;20228;-86
2022/02/01 05:38:41;;;;;;;20.42;12.55;;;3.10;1.00;;;;;;4921139;28;20601;-88
2022/02/01 05:41:19;;;;;;;13.13;10.27;;;3.10;1.00;;;;;;4958548;28;20220;-87
2022/02/01 05:43:48;;;;;;;15.20;10.05;;;3.00;1.00;;;;;;4942497;28;20316;-86
2022/02/01 05:46:17;;;;;;;18.48;10.82;;;2.90;1.00;;;;;;4958137;28;20324;-86
2022/02/01 05:48:51;;;;;;;18.55;11.52;;;2.70;1.00;;;;;;4942118;28;20248;-86
2022/02/01 05:51:18;;;;;;;15.73;11.07;;;2.70;1.00;;;;;;4951554;28;20225;-86
2022/02/01 05:53:47;;;;;;;21.08;16.02;;;2.60;1.00;;;;;;4951347;28;21434;-87
2022/02/01 05:56:16;;;;;;;19.10;10.60;;;2.60;1.00;;;;;;4942525;28;20230;-86
2022/02/01 05:58:43;;;;;;;19.67;11.90;;;2.50;1.00;;;;;;4946227;28;20241;-86
2022/02/01 06:01:10;;;;;;;22.65;11.27;;;2.50;1.00;;;;;;4951053;28;20323;-87
2022/02/01 06:03:37;;;;;;;16.17;11.52;;;2.50;1.00;;;;;;4948337;28;20229;-87
2022/02/01 06:06:04;;;;;;;17.08;12.40;;;2.50;1.00;;;;;;4954043;28;20232;-86
2022/02/01 06:08:33;;;;;;;16.20;12.00;;;2.50;1.00;;;;;;4949076;28;20240;-87
2022/02/01 06:11:03;;;;;;;21.13;11.23;;;2.50;1.00;;;;;;4946853;28;20233;-85
2022/02/01 06:13:36;;;;;;;17.95;11.90;;;2.50;1.00;;;;;;4947128;28;20264;-86
2022/02/01 06:16:03;;;;;;;17.23;11.23;;;2.50;1.00;;;;;;4946146;28;20233;-85
2022/02/01 06:18:34;;;;;;;20.98;12.35;;;2.50;1.00;;;;;;4949257;28;20363;-86
2022/02/01 06:21:01;;;;;;;26.67;14.30;;;2.50;1.00;;;;;;4949337;28;20227;-85
2022/02/01 06:23:31;;;;;;;20.90;11.68;;;2.50;1.00;;;;;;4953664;28;20237;-87
2022/02/01 06:25:58;;;;;;;19.77;13.63;;;2.50;1.00;;;;;;4946374;28;20341;-86
2022/02/01 06:28:29;;;;;;;18.55;12.27;;;2.50;1.00;;;;;;4950565;28;20904;-86
2022/02/01 06:30:59;;;;;;;24.50;14.07;;;2.50;1.00;;;;;;4949148;28;20320;-86
2022/02/01 06:33:31;;;;;;;23.88;13.90;;;2.50;1.00;;;;;;4947701;28;20344;-87
2022/02/01 06:35:58;;;;;;;23.92;13.40;;;2.50;1.00;;;;;;4952034;28;20235;-85
2022/02/01 06:38:25;;;;;;;22.45;13.35;;;2.50;1.00;;;;;;4949834;28;20233;-86
2022/02/01 06:40:53;;;;;;;20.92;12.27;;;2.60;1.00;;;;;;4947200;28;20260;-86
2022/02/01 06:43:21;;;;;;;20.13;11.82;;;2.60;1.00;;;;;;4947358;28;20240;-84
2022/02/01 06:45:48;;;;;;;18.80;12.68;;;2.60;1.00;;;;;;4964680;28;20251;-84
2022/02/01 06:48:17;;;;;;;16.55;11.90;;;2.60;1.00;;;;;;4959105;28;20245;-85
2022/02/01 06:50:44;;;;;;;20.50;12.10;;;2.70;1.00;;;;;;4944928;28;20296;-85
2022/02/01 06:53:11;;;;;;;18.50;11.93;;;2.70;1.00;;;;;;4940390;28;21034;-86
2022/02/01 06:55:45;;;;;;;24.77;12.85;;;2.70;1.00;;;;;;4942160;28;20329;-85
2022/02/01 06:58:13;;;;;;;26.50;13.57;;;2.70;1.00;;;;;;4942671;28;20297;-85
2022/02/01 07:00:40;;;;;;;20.33;11.55;;;2.80;1.00;;;;;;4943201;28;20232;-85
2022/02/01 07:03:07;;;;;;;17.75;11.27;;;2.80;1.00;;;;;;4948397;28;20739;-84
2022/02/01 07:05:35;;;;;;;19.95;12.55;;;2.80;1.00;;;;;;4957120;28;20220;-85
2022/02/01 07:08:02;;;;;;;17.48;12.05;;;2.80;1.00;;;;;;4944486;28;20245;-85
2022/02/01 07:10:36;;;;;;;19.52;11.50;;;2.80;1.00;;;;;;4951108;28;20236;-87
2022/02/01 07:13:09;;;;;;;20.08;12.30;;;2.70;1.00;;;;;;4976245;28;20229;-87
2022/02/01 07:15:42;;;;;;;18.27;12.00;;;2.70;1.00;;;;;;4980925;28;20249;-88
2022/02/01 07:18:19;;;;;;;18.10;10.80;;;2.80;1.00;;;;;;4986160;28;20243;-89
2022/02/01 07:20:49;;;;;;;20.85;13.57;;;2.70;1.00;;;;;;4967682;28;20285;-88
2022/02/01 07:23:22;;;;;;;16.80;11.90;;;2.80;1.00;;;;;;4966028;28;20539;-86
2022/02/01 07:25:50;;;;;;;20.85;10.65;;;2.80;1.00;;;;;;4966192;28;20221;-86
2022/02/01 07:28:17;;;;;;;16.75;10.88;;;2.80;1.00;;;;;;4968959;28;20224;-86
2022/02/01 07:30:46;;;;;;;21.20;11.02;;;2.90;1.00;;;;;;4975863;28;20231;-87
2022/02/01 07:33:15;;;;;;;18.92;12.35;;;2.80;1.00;;;;;;4975851;28;20237;-87
2022/02/01 07:35:45;;;;;;;17.58;9.52;;;2.90;1.00;;;;;;4976636;28;20221;-88
2022/02/01 07:38:17;;;;;;;18.80;9.70;;;2.90;1.00;;;;;;4976609;28;20221;-87
2022/02/01 07:40:44;;;;;;;18.77;9.20;;;2.90;1.00;;;;;;4967541;28;20553;-86
2022/02/01 07:43:11;;;;;;;15.63;8.82;;;2.90;1.00;;;;;;4963856;28;20293;-85
2022/02/01 07:45:40;;;;;;;17.15;8.48;;;2.90;1.00;;;;;;4952402;28;20321;-86
2022/02/01 07:48:07;;;;;;;18.85;9.90;;;2.90;1.00;;;;;;4951482;28;20256;-86
2022/02/01 07:50:39;;;;;;;21.60;9.90;;;3.00;1.00;;;;;;4945317;28;20300;-87
2022/02/01 07:53:07;;;;;;;20.05;8.55;;;3.10;1.00;;;;;;4945637;28;20299;-86
2022/02/01 07:55:35;;;;;;;22.10;10.02;;;3.10;1.00;;;;;;4941239;28;20315;-85
2022/02/01 07:58:05;;;;;;;18.65;10.10;;;3.10;1.00;;;;;;4946395;28;20285;-87
2022/02/01 08:00:33;;;;;;;15.40;8.43;;;3.10;1.00;;;;;;4954585;28;20257;-86
2022/02/01 08:03:01;;;;;;;14.38;8.35;;;3.10;1.00;;;;;;4952135;28;20217;-87
2022/02/01 08:05:30;;;;;;;15.50;10.13;;;3.10;1.00;;;;;;4952610;28;20244;-87
2022/02/01 08:08:01;;;;;;;14.80;8.30;;;3.20;1.00;;;;;;4968604;28;20265;-88
2022/02/01 08:10:35;;;;;;;21.08;8.90;;;3.20;1.00;;;;;;4968875;28;20259;-91
2022/02/01 08:18:45;;;;;;;13.63;8.85;;;3.30;1.00;;;;;;4947963;28;21118;-88
2022/02/01 08:21:23;;;;;;;14.13;6.38;;;3.30;1.00;;;;;;4965324;28;20228;-88
2022/02/01 08:23:51;;;;;;;14.07;7.85;;;3.40;1.00;;;;;;4962399;28;20272;-87
2022/02/01 08:26:18;;;;;;;13.48;7.05;;;3.40;1.00;;;;;;4953508;28;20257;-87
2022/02/01 08:28:47;;;;;;;17.58;6.90;;;3.50;1.00;;;;;;4952204;28;20252;-87
2022/02/01 08:31:17;;;;;;;16.65;6.70;;;3.50;1.00;;;;;;4956918;28;20225;-87
2022/02/01 08:33:44;;;;;;;14.57;7.38;;;3.50;1.00;;;;;;4969133;28;20232;-88
2022/02/01 09:03:31;;;;;;;13.50;7.82;;;3.80;1.00;;;;;;5501086;23;20753;-85
2022/02/01 09:05:58;;;;;;;16.25;5.75;;;3.80;1.00;;;;;;4988935;28;20306;-85
2022/02/01 09:08:27;;;;;;;15.10;5.85;;;3.80;1.00;;;;;;5001828;28;20330;-86
2022/02/01 09:10:55;;;;;;;12.10;6.30;;;3.90;1.00;;;;;;4985297;28;21420;-86
2022/02/01 09:13:22;;;;;;;14.15;6.20;;;4.00;1.00;;;;;;5004845;28;20229;-86
2022/02/01 09:15:49;;;;;;;19.25;7.25;;;4.00;1.00;;;;;;4991006;28;20279;-84
2022/02/01 09:18:16;;;;;;;13.95;5.32;;;4.10;1.00;;;;;;5026169;28;20242;-86
2022/02/01 09:20:49;;;;;;;9.88;5.57;;;4.10;1.00;;;;;;5011081;28;20229;-85
2022/02/01 09:23:15;;;;;;;11.13;5.85;;;4.10;1.00;;;;;;5011613;28;20225;-85
2022/02/01 09:25:42;;;;;;;9.90;4.78;;;4.10;1.00;;;;;;5030307;28;20588;-84
2022/02/01 09:28:36;;;;;;;10.25;4.68;;;4.10;1.00;;;;;;5017517;28;20613;-87
2022/02/01 09:45:20;;;;;;;13.68;4.50;;;4.40;1.00;;;;;;5742282;22;20241;-82
2022/02/01 09:47:47;;;;;;;10.35;5.78;;;4.40;1.00;;;;;;5027110;28;20225;-83
2022/02/01 09:50:15;;;;;;;10.73;4.53;;;4.40;1.00;;;;;;5027427;28;20277;-84
2022/02/01 09:52:45;;;;;;;11.80;4.53;;;4.40;1.00;;;;;;5022487;28;20696;-85
2022/02/01 09:55:29;;;;;;;12.35;4.30;;;4.40;1.00;;;;;;5025531;28;20797;-84
2022/02/01 10:01:29;;;;;;;11.68;3.40;;;4.40;1.00;;;;;;5021182;28;20226;-88
2022/02/01 10:04:37;;;;;;;9.73;4.70;;;4.50;1.00;;;;;;5020650;28;20226;-88
2022/02/01 10:07:20;;;;;;;14.88;4.50;;;4.50;1.00;;;;;;5020219;28;20225;-89
2022/02/01 10:09:58;;;;;;;10.93;4.13;;;4.50;1.00;;;;;;5004891;28;20575;-89
2022/02/01 10:12:45;;;;;;;14.88;5.28;;;4.60;1.00;;;;;;5010660;28;20293;-89
2022/02/01 10:15:26;;;;;;;9.75;4.25;;;4.60;1.00;;;;;;5012762;28;20226;-88
2022/02/01 10:18:05;;;;;;;9.65;4.20;;;4.60;1.00;;;;;;5009872;28;20233;-88
2022/02/01 10:20:46;;;;;;;8.32;4.60;;;4.70;1.00;;;;;;5015407;28;20229;-89
2022/02/01 10:23:25;;;;;;;7.90;3.88;;;4.70;1.00;;;;;;5025923;28;20246;-88
2022/02/01 10:26:17;;;;;;;14.52;4.85;;;4.60;1.00;;;;;;5027330;28;20209;-88
2022/02/01 10:29:16;;;;;;;10.55;4.60;;;4.70;1.00;;;;;;5016238;28;20241;-88
2022/02/01 10:32:32;;;;;;;12.73;4.70;;;4.70;1.00;;;;;;5031438;28;20228;-88
2022/02/01 10:35:34;;;;;;;20.13;5.93;;;4.70;1.00;;;;;;5036304;28;20272;-89
2022/02/01 10:38:19;;;;;;;10.15;3.85;;;4.70;1.00;;;;;;5010020;28;20218;-90
2022/02/01 10:41:06;;;;;;;15.40;4.38;;;4.70;1.00;;;;;;5012662;28;21015;-89
2022/02/01 10:43:46;;;;;;;9.55;4.38;;;4.80;1.00;;;;;;5030071;28;20226;-88
2022/02/01 10:56:39;;;;;;;12.05;4.60;;;4.60;1.00;;;;;;5004520;28;20230;-88
2022/02/01 10:59:24;;;;;;;13.48;4.45;;;4.70;1.00;;;;;;5010812;28;20997;-89
2022/02/01 11:02:06;;;;;;;9.82;3.78;;;4.70;1.00;;;;;;4990440;28;20235;-88
2022/02/01 11:05:17;;;;;;;10.52;5.15;;;4.70;1.00;;;;;;4996635;28;21522;-89
2022/02/01 11:55:39;;;;;;;14.07;4.18;;;5.00;1.00;;;;;;4921801;28;20210;-93
2022/02/01 14:52:06;;;;;;;7.30;5.20;;;2.90;1.00;;;;;;5484730;23;20234;-91
2022/02/01 14:54:43;;;;;;;8.30;4.90;;;2.90;1.00;;;;;;5044855;28;20218;-87
2022/02/01 15:12:55;;;;;;;5.28;4.55;;;2.70;1.00;;;;;;4999251;28;20235;-89
2022/02/01 15:15:25;;;;;;;5.38;4.50;;;2.70;1.00;;;;;;4994341;28;20215;-87
2022/02/01 15:17:52;;;;;;;6.65;4.53;;;2.70;1.00;;;;;;4993984;28;20266;-88
2022/02/01 15:23:24;;;;;;;5.28;4.45;;;2.70;1.00;;;;;;4977542;28;20231;-89
2022/02/01 15:26:04;;;;;;;8.07;3.90;;;2.80;1.00;;;;;;4993848;28;20266;-90
2022/02/01 15:32:12;;;;;;;5.75;4.43;;;2.80;1.00;;;;;;4984155;28;20234;-90
2022/02/01 15:38:15;;;;;;;9.02;6.70;;;2.90;1.00;;;;;;5011509;28;21112;-93
2022/02/01 15:57:58;;;;;;;5.57;4.55;;;3.10;1.00;;;;;;4936474;28;20240;-91
2022/02/01 16:04:20;;;;;;;5.30;4.03;;;3.20;1.00;;;;;;4918308;28;20244;-89
2022/02/01 16:06:55;;;;;;;4.95;4.07;;;3.20;1.00;;;;;;4993253;28;20227;-89
2022/02/01 16:09:49;;;;;;;6.90;4.50;;;3.30;1.00;;;;;;4991812;28;20238;-91
2022/02/01 16:15:49;;;;;;;7.78;4.55;;;3.40;1.00;;;;;;5002640;28;20230;-87
2022/02/01 16:18:15;;;;;;;7.35;4.25;;;3.40;1.00;;;;;;5020833;28;20231;-81
2022/02/01 16:20:43;;;;;;;5.80;4.50;;;3.50;1.00;;;;;;5003557;28;20230;-87
2022/02/01 16:23:10;;;;;;;6.72;4.80;;;3.50;1.00;;;;;;5003569;28;20797;-85
2022/02/01 16:25:37;;;;;;;5.00;4.32;;;3.60;1.00;;;;;;5006708;28;20765;-87
2022/02/01 16:28:05;;;;;;;5.93;4.93;;;3.70;1.00;;;;;;5003948;28;20267;-86
2022/02/01 16:30:42;;;;;;;5.70;4.90;;;3.70;1.00;;;;;;5005673;28;20234;-88
2022/02/01 16:33:19;;;;;;;5.65;4.32;;;3.80;1.00;;;;;;4993794;28;20240;-86
2022/02/01 16:35:46;;;;;;;7.68;5.25;;;3.80;1.00;;;;;;5013473;28;20239;-88
2022/02/01 16:38:24;;;;;;;6.40;5.78;;;3.90;1.00;;;;;;5001693;28;20407;-89
2022/02/01 16:40:55;;;;;;;5.88;4.97;;;4.00;1.00;;;;;;4997217;28;20233;-88
2022/02/01 16:43:25;;;;;;;6.00;5.40;;;4.00;1.00;;;;;;5010763;28;21283;-87
2022/02/01 16:46:01;;;;;;;6.50;5.80;;;4.10;1.00;;;;;;5005699;28;20305;-81
2022/02/01 16:48:40;;;;;;;6.35;5.55;;;4.10;1.00;;;;;;5002797;28;20237;-87
2022/02/01 16:51:12;;;;;;;6.57;5.47;;;4.20;1.00;;;;;;5005302;28;20227;-88
2022/02/01 16:53:51;;;;;;;5.72;5.20;;;4.30;1.00;;;;;;4988588;28;20230;-86
2022/02/01 16:56:39;;;;;;;6.43;5.30;;;4.30;1.00;;;;;;5005921;28;20262;-87
2022/02/01 16:59:19;;;;;;;5.85;5.25;;;4.40;1.00;;;;;;5028184;28;20230;-86
2022/02/01 17:01:51;;;;;;;8.18;6.10;;;4.40;1.00;;;;;;5035861;28;20218;-87
2022/02/01 17:04:33;;;;;;;6.35;5.53;;;4.50;1.00;;;;;;5026732;28;20259;-87
2022/02/01 17:07:14;;;;;;;6.68;5.55;;;4.50;1.00;;;;;;4999867;28;21065;-88
2022/02/01 17:09:46;;;;;;;7.60;6.90;;;4.60;1.00;;;;;;4999214;28;20270;-87
2022/02/01 17:12:42;;;;;;;8.52;6.60;;;4.60;1.00;;;;;;5002348;28;20215;-88
2022/02/01 17:15:41;;;;;;;8.07;6.35;;;4.70;1.00;;;;;;5001534;28;20297;-88
2022/02/01 17:23:49;;;;;;;7.28;6.57;;;4.80;1.00;;;;;;5005377;28;20214;-88
2022/02/01 17:26:28;;;;;;;8.07;7.03;;;4.80;1.00;;;;;;4990308;28;20234;-87
2022/02/01 17:29:15;;;;;;;7.28;6.55;;;4.90;1.00;;;;;;5009796;28;20280;-87
2022/02/01 17:31:47;;;;;;;7.72;6.75;;;4.90;1.00;;;;;;4994067;28;20261;-89
2022/02/01 17:34:33;;;;;;;7.90;7.15;;;5.00;1.00;;;;;;4998413;28;20718;-87
2022/02/01 17:37:13;;;;;;;7.72;6.97;;;5.00;1.00;;;;;;5009780;28;20290;-89
2022/02/01 17:39:55;;;;;;;7.38;6.75;;;5.10;1.00;;;;;;5015691;28;20237;-87
2022/02/01 17:43:15;;;;;;;8.55;6.55;;;5.10;1.00;;;;;;5016712;28;20219;-87
2022/02/01 17:46:14;;;;;;;8.07;6.90;;;5.10;1.00;;;;;;4903564;28;20225;-89
2022/02/01 17:49:15;;;;;;;;;;;;;;;;;;;;;
2022/02/01 17:52:13;;;;;;;7.93;6.75;;;5.20;1.00;;;;;;4990055;28;20199;-85
2022/02/01 17:54:42;;;;;;;9.13;7.57;;;5.20;1.00;;;;;;4996736;28;20243;-88
2022/02/01 17:57:09;;;;;;;9.45;8.23;;;5.30;1.00;;;;;;4987633;28;20243;-88
2022/02/01 17:59:37;;;;;;;8.43;7.05;;;5.30;1.00;;;;;;5002000;28;20241;-88
2022/02/01 18:02:04;;;;;;;10.00;7.82;;;5.30;1.00;;;;;;4979738;28;20219;-88
2022/02/01 18:04:31;;;;;;;9.82;8.52;;;5.30;1.00;;;;;;5015564;28;20262;-88
2022/02/01 18:07:12;;;;;;;9.60;7.47;;;5.40;1.00;;;;;;4987523;28;21040;-88
2022/02/01 18:09:42;;;;;;;9.65;8.05;;;5.40;1.00;;;;;;4983595;28;20239;-88
2022/02/01 18:12:22;;;;;;;7.40;6.57;;;5.40;1.00;;;;;;4984458;28;20318;-87
2022/02/01 18:14:58;;;;;;;12.55;7.93;;;5.40;1.00;;;;;;5000618;28;20223;-88
2022/02/01 18:17:26;;;;;;;9.18;6.53;;;5.50;1.00;;;;;;4986694;28;20245;-88
2022/02/01 18:19:55;;;;;;;8.43;5.95;;;5.50;1.00;;;;;;4986400;28;20234;-88
2022/02/01 18:22:25;;;;;;;7.75;6.95;;;5.50;1.00;;;;;;5002896;28;20556;-89
2022/02/01 18:24:55;;;;;;;9.80;6.38;;;5.50;1.00;;;;;;5001910;28;20227;-87
2022/02/01 18:27:23;;;;;;;13.65;8.32;;;5.60;1.00;;;;;;5002110;28;21102;-89
2022/02/01 18:29:51;;;;;;;8.48;5.97;;;5.60;1.00;;;;;;4998926;28;20237;-88
2022/02/01 18:32:20;;;;;;;11.20;5.45;;;5.70;1.00;;;;;;5002169;28;20258;-89
2022/02/01 18:34:49;;;;;;;7.57;5.55;;;5.70;1.00;;;;;;4987638;28;20223;-88
2022/02/01 18:37:19;;;;;;;9.30;4.90;;;5.80;1.00;;;;;;4983018;28;20227;-89
2022/02/01 18:40:00;;;;;;;7.55;4.32;;;5.80;1.00;;;;;;4984839;28;20708;-88
2022/02/01 18:42:41;;;;;;;12.32;5.40;;;5.90;1.00;;;;;;4990240;28;20241;-89
2022/02/01 18:45:14;;;;;;;13.85;4.07;;;5.90;1.00;;;;;;5001863;28;20345;-88
2022/02/01 18:47:47;;;;;;;9.75;4.75;;;5.90;1.00;;;;;;4992445;28;20318;-88
2022/02/01 18:50:26;;;;;;;8.75;4.38;;;6.00;1.00;;;;;;5010289;28;20235;-88
2022/02/01 18:53:03;;;;;;;14.18;4.03;;;6.00;1.00;;;;;;5007894;28;20222;-88
2022/02/01 18:55:47;;;;;;;12.07;4.35;;;6.00;1.00;;;;;;4993580;28;20258;-88
2022/02/01 19:07:13;;;;;;;11.88;3.78;;;6.10;1.00;;;;;;4999768;28;21174;-88
2022/02/01 19:10:05;;;;;;;12.00;4.72;;;6.10;1.00;;;;;;5002774;28;20237;-88
2022/02/01 19:12:38;;;;;;;6.95;3.42;;;6.10;1.00;;;;;;5003078;28;20321;-88
2022/02/01 19:15:20;;;;;;;10.45;3.40;;;6.10;1.00;;;;;;5008526;28;20219;-87
2022/02/01 19:17:52;;;;;;;9.13;4.07;;;6.10;1.00;;;;;;4988972;28;20227;-88
2022/02/01 19:20:20;;;;;;;7.72;4.18;;;6.10;1.00;;;;;;4989779;28;20297;-86
2022/02/01 19:22:47;;;;;;;10.73;4.32;;;6.10;1.00;;;;;;5003521;28;20231;-84
2022/02/01 19:25:24;;;;;;;8.10;2.90;;;6.10;1.00;;;;;;5002174;28;20222;-83
2022/02/01 19:27:52;;;;;;;9.13;3.60;;;6.10;1.00;;;;;;5001987;28;20307;-83
2022/02/01 19:30:20;;;;;;;9.60;3.15;;;6.10;1.00;;;;;;4997138;28;20778;-85
2022/02/01 19:32:50;;;;;;;7.30;3.00;;;6.10;1.00;;;;;;4980539;28;20223;-84
2022/02/01 19:35:20;;;;;;;11.23;3.15;;;6.10;1.00;;;;;;5002985;28;20237;-84
2022/02/01 19:37:52;;;;;;;11.88;4.13;;;6.10;1.00;;;;;;5012166;28;20210;-84
2022/02/01 19:40:19;;;;;;;10.88;4.45;;;6.10;1.00;;;;;;4988592;28;20282;-84
2022/02/01 19:42:55;;;;;;;9.10;4.05;;;6.10;1.00;;;;;;4998136;28;20226;-83
2022/02/01 19:45:24;;;;;;;9.77;3.10;;;6.10;1.00;;;;;;4980716;28;20250;-84
2022/02/01 19:47:51;;;;;;;9.85;3.40;;;6.10;1.00;;;;;;4992035;28;20228;-84
2022/02/01 19:50:18;;;;;;;12.57;3.33;;;6.10;1.00;;;;;;4991886;28;20241;-83
2022/02/01 19:52:45;;;;;;;9.30;3.33;;;6.10;1.00;;;;;;4993696;28;20317;-84
2022/02/01 19:55:12;;;;;;;24.80;8.90;;;6.10;1.00;;;;;;4998266;28;20227;-84
2022/02/01 19:57:40;;;;;;;8.75;3.33;;;6.10;1.00;;;;;;4997137;28;20306;-84
2022/02/01 20:00:10;;;;;;;8.88;3.75;;;6.10;1.00;;;;;;4994712;28;20235;-82
2022/02/01 20:02:40;;;;;;;8.40;2.92;;;6.10;1.00;;;;;;4998557;28;20246;-82
2022/02/01 20:05:08;;;;;;;11.68;3.28;;;6.10;1.00;;;;;;5001358;28;20227;-84
2022/02/01 20:07:37;;;;;;;11.88;3.85;;;6.10;1.00;;;;;;4990236;28;20720;-83
2022/02/01 20:10:07;;;;;;;12.10;3.75;;;6.10;1.00;;;;;;4995472;28;20334;-83
2022/02/01 20:12:36;;;;;;;11.50;3.35;;;6.10;1.00;;;;;;4980414;28;20329;-83
2022/02/01 20:15:03;;;;;;;11.48;3.80;;;6.10;1.00;;;;;;5002629;28;21030;-83
2022/02/01 20:17:30;;;;;;;9.20;3.10;;;6.10;1.00;;;;;;4998914;28;20741;-83
2022/02/01 20:19:58;;;;;;;8.35;4.03;;;6.10;1.00;;;;;;4991425;28;20297;-83
2022/02/01 20:22:27;;;;;;;12.93;4.38;;;6.10;1.00;;;;;;4968967;28;20302;-83
2022/02/01 20:24:55;;;;;;;11.38;3.55;;;6.10;1.00;;;;;;4995531;28;24134;-83